createdAt,value
2023-04-29T00:01:00.820Z,8.83
2023-04-29T00:03:32.936Z,7.93
2023-04-29T00:06:02.197Z,8.27
2023-04-29T00:08:30.597Z,7.90
2023-04-29T00:10:58.958Z,7.73
2023-04-29T00:13:30.015Z,7.40
2023-04-29T00:15:58.612Z,6.87
2023-04-29T00:18:29.526Z,6.10
2023-04-29T00:20:59.214Z,5.33
2023-04-29T00:23:27.603Z,4.80
2023-04-29T00:25:55.859Z,4.57
2023-04-29T00:28:24.177Z,5.10
2023-04-29T00:30:53.347Z,4.23
2023-04-29T00:33:21.618Z,3.97
2023-04-29T00:35:50.097Z,3.50
2023-04-29T00:38:21.281Z,3.20
2023-04-29T00:40:50.153Z,3.80
2023-04-29T00:43:18.583Z,3.70
2023-04-29T00:45:46.935Z,3.90
2023-04-29T00:48:15.856Z,4.00
2023-04-29T00:50:44.299Z,3.70
2023-04-29T00:53:13.371Z,3.67
2023-04-29T00:55:45.102Z,3.83
2023-04-29T00:58:13.644Z,3.23
2023-04-29T01:00:44.087Z,2.67
2023-04-29T01:03:12.557Z,2.90
2023-04-29T01:05:41.247Z,2.73
2023-04-29T01:08:22.534Z,2.50
2023-04-29T01:10:58.271Z,2.30
2023-04-29T01:13:31.815Z,2.30
2023-04-29T01:16:04.884Z,2.30
2023-04-29T01:18:35.843Z,2.43
2023-04-29T01:21:04.983Z,2.40
2023-04-29T01:23:34.748Z,2.47
2023-04-29T01:26:03.153Z,2.57
2023-04-29T01:28:55.895Z,2.80
2023-04-29T01:31:32.115Z,2.60
2023-04-29T01:34:08.504Z,2.50
2023-04-29T01:36:48.305Z,2.57
2023-04-29T01:39:25.895Z,2.80
2023-04-29T01:42:12.521Z,2.77
2023-04-29T01:44:42.453Z,3.10
2023-04-29T01:47:14.546Z,2.53
2023-04-29T01:49:47.943Z,3.00
2023-04-29T01:52:16.304Z,2.83
2023-04-29T01:54:54.385Z,2.33
2023-04-29T01:57:22.715Z,2.20
2023-04-29T01:59:57.349Z,2.00
2023-04-29T02:02:48.740Z,1.90
2023-04-29T02:05:26.220Z,2.00
2023-04-29T02:07:58.035Z,2.07
2023-04-29T02:10:27.941Z,2.23
2023-04-29T02:13:05.437Z,1.90
2023-04-29T02:15:33.845Z,2.40
2023-04-29T02:18:02.211Z,2.40
2023-04-29T02:20:30.704Z,2.10
2023-04-29T02:22:58.944Z,2.20
2023-04-29T02:25:28.938Z,2.30
2023-04-29T02:27:57.541Z,2.10
2023-04-29T02:30:27.995Z,2.70
2023-04-29T02:32:56.341Z,2.63
2023-04-29T02:35:24.664Z,3.07
2023-04-29T02:37:52.966Z,2.73
2023-04-29T02:40:21.320Z,3.00
2023-04-29T02:42:51.012Z,3.00
2023-04-29T02:45:19.581Z,2.50
2023-04-29T02:47:47.837Z,2.73
2023-04-29T02:50:16.250Z,2.90
2023-04-29T02:52:44.591Z,2.60
2023-04-29T02:55:12.960Z,3.73
2023-04-29T02:57:41.321Z,3.63
2023-04-29T03:00:12.303Z,3.73
2023-04-29T03:02:40.719Z,4.10
2023-04-29T03:05:10.226Z,3.50
2023-04-29T03:07:38.743Z,4.17
2023-04-29T03:10:08.410Z,4.73
2023-04-29T03:12:39.392Z,4.20
2023-04-29T03:15:10.756Z,4.03
2023-04-29T03:17:39.329Z,4.60
2023-04-29T03:20:10.615Z,4.67
2023-04-29T03:22:38.850Z,7.13
2023-04-29T03:25:08.099Z,5.17
2023-04-29T03:27:36.556Z,4.40
2023-04-29T03:30:05.356Z,5.27
2023-04-29T03:32:35.381Z,5.13
2023-04-29T03:35:03.658Z,5.23
2023-04-29T03:37:39.636Z,6.00
2023-04-29T03:40:24.561Z,6.50
2023-04-29T03:42:52.943Z,6.20
2023-04-29T03:45:21.710Z,6.03
2023-04-29T03:47:52.509Z,6.63
2023-04-29T03:50:20.861Z,6.93
2023-04-29T03:52:50.347Z,6.80
2023-04-29T03:55:20.266Z,6.17
2023-04-29T03:57:49.465Z,6.10
2023-04-29T04:00:20.010Z,6.53
2023-04-29T04:02:56.029Z,6.40
2023-04-29T04:05:27.922Z,6.17
2023-04-29T04:08:01.630Z,5.77
2023-04-29T04:10:52.653Z,5.70
2023-04-29T04:13:45.138Z,5.73
2023-04-29T04:16:14.136Z,5.70
2023-04-29T04:18:44.099Z,5.87
2023-04-29T04:21:13.523Z,6.33
2023-04-29T04:23:45.049Z,6.20
2023-04-29T04:26:16.455Z,6.50
2023-04-29T04:28:53.673Z,6.63
2023-04-29T04:31:40.680Z,7.90
2023-04-29T04:34:11.615Z,7.30
2023-04-29T04:36:40.252Z,7.40
2023-04-29T04:39:08.560Z,7.30
2023-04-29T04:41:37.028Z,8.07
2023-04-29T04:44:06.414Z,7.60
2023-04-29T04:46:48.446Z,8.60
2023-04-29T04:49:28.841Z,7.87
2023-04-29T04:51:58.136Z,8.53
2023-04-29T04:54:26.919Z,8.07
2023-04-29T04:57:06.042Z,9.03
2023-04-29T04:59:35.034Z,8.60
2023-04-29T05:02:03.506Z,8.10
2023-04-29T05:04:33.483Z,8.20
2023-04-29T05:07:03.045Z,7.20
2023-04-29T05:09:38.864Z,8.63
2023-04-29T05:12:07.348Z,8.97
2023-04-29T05:14:35.836Z,8.47
2023-04-29T05:17:04.169Z,8.77
2023-04-29T05:19:34.422Z,9.43
2023-04-29T05:22:03.220Z,9.10
2023-04-29T05:24:31.672Z,9.17
2023-04-29T05:27:00.171Z,9.80
2023-04-29T05:29:28.654Z,8.97
2023-04-29T05:32:01.035Z,10.23
2023-04-29T05:34:29.528Z,9.47
2023-04-29T05:36:59.354Z,9.43
2023-04-29T05:39:28.269Z,9.90
2023-04-29T05:42:09.392Z,10.23
2023-04-29T05:44:45.848Z,9.93
2023-04-29T05:51:33.713Z,9.60
2023-04-29T05:57:15.395Z,9.13
2023-04-29T06:00:53.336Z,10.50
2023-04-29T06:03:53.511Z,9.70
2023-04-29T06:06:46.894Z,9.20
2023-04-29T06:09:44.102Z,9.70
2023-04-29T06:15:41.006Z,9.00
2023-04-29T06:18:16.606Z,9.37
2023-04-29T06:21:07.996Z,10.20
2023-04-29T06:26:39.466Z,9.73
2023-04-29T06:29:30.402Z,10.50
2023-04-29T06:32:37.465Z,10.10
2023-04-29T06:35:26.340Z,9.73
2023-04-29T06:38:32.497Z,9.87
2023-04-29T06:41:51.142Z,10.93
2023-04-29T06:45:33.722Z,10.83
2023-04-29T06:48:20.955Z,10.87
2023-04-29T06:50:53.761Z,10.60
2023-04-29T06:53:23.032Z,10.17
2023-04-29T06:55:52.211Z,10.37
2023-04-29T06:58:23.443Z,10.77
2023-04-29T07:00:53.210Z,10.97
2023-04-29T07:03:24.143Z,11.30
2023-04-29T07:05:52.818Z,10.10
2023-04-29T07:08:21.378Z,10.73
2023-04-29T07:10:56.284Z,10.33
2023-04-29T07:13:27.338Z,10.70
2023-04-29T07:15:55.920Z,10.00
2023-04-29T07:18:24.747Z,10.33
2023-04-29T07:20:53.248Z,9.40
2023-04-29T07:23:22.000Z,9.93
2023-04-29T07:25:50.777Z,9.43
2023-04-29T07:28:19.331Z,9.10
2023-04-29T07:30:49.473Z,9.00
2023-04-29T07:33:18.319Z,9.07
2023-04-29T07:35:47.520Z,10.00
2023-04-29T07:38:16.569Z,9.60
2023-04-29T07:40:45.062Z,9.60
2023-04-29T07:43:13.695Z,8.67
2023-04-29T07:45:42.183Z,9.10
2023-04-29T07:48:12.131Z,9.03
2023-04-29T07:50:40.731Z,9.30
2023-04-29T07:53:09.151Z,8.90
2023-04-29T07:55:38.940Z,9.13
2023-04-29T07:58:07.786Z,9.20
2023-04-29T08:00:36.498Z,9.73
2023-04-29T08:03:05.397Z,9.20
2023-04-29T08:05:36.833Z,8.93
2023-04-29T08:08:05.750Z,9.63
2023-04-29T08:10:34.293Z,9.50
2023-04-29T08:13:02.890Z,9.47
2023-04-29T08:15:31.566Z,9.40
2023-04-29T08:18:01.238Z,9.50
2023-04-29T08:20:30.660Z,9.27
2023-04-29T08:23:01.571Z,8.70
2023-04-29T08:25:30.325Z,9.17
2023-04-29T08:27:58.784Z,9.57
2023-04-29T08:30:27.332Z,8.90
2023-04-29T08:32:55.877Z,9.53
2023-04-29T08:35:24.782Z,9.10
2023-04-29T08:37:54.906Z,9.73
2023-04-29T08:41:19.286Z,9.83
2023-04-29T08:43:49.355Z,9.23
2023-04-29T08:46:18.928Z,10.23
2023-04-29T08:48:48.576Z,9.53
2023-04-29T08:51:17.319Z,8.33
2023-04-29T08:53:45.919Z,9.10
2023-04-29T08:56:17.829Z,8.63
2023-04-29T08:58:46.477Z,8.43
2023-04-29T09:01:16.706Z,7.63
2023-04-29T09:03:53.083Z,7.47
2023-04-29T09:06:22.483Z,7.47
2023-04-29T09:08:51.388Z,7.27
2023-04-29T09:11:20.924Z,7.10
2023-04-29T09:13:49.444Z,6.90
2023-04-29T09:16:19.315Z,6.33
2023-04-29T09:18:49.398Z,6.10
2023-04-29T09:21:22.356Z,6.70
2023-04-29T09:23:53.629Z,6.40
2023-04-29T09:26:22.817Z,6.30
2023-04-29T09:29:08.596Z,6.97
2023-04-29T09:31:39.770Z,6.73
2023-04-29T09:34:08.536Z,6.43
2023-04-29T09:36:42.532Z,6.53
2023-04-29T09:39:12.962Z,6.70
2023-04-29T09:42:00.395Z,5.93
2023-04-29T09:44:32.883Z,5.80
2023-04-29T09:47:05.728Z,6.07
2023-04-29T09:49:37.514Z,6.00
2023-04-29T09:52:07.275Z,6.13
2023-04-29T09:54:38.565Z,6.50
2023-04-29T09:57:08.568Z,6.87
2023-04-29T09:59:39.723Z,6.90
2023-04-29T10:02:21.257Z,7.17
2023-04-29T10:04:57.538Z,7.23
2023-04-29T10:07:30.341Z,6.93
2023-04-29T10:09:59.239Z,6.20
2023-04-29T10:12:27.831Z,6.60
2023-04-29T10:15:03.736Z,6.20
2023-04-29T10:17:44.189Z,6.00
2023-04-29T10:20:16.402Z,5.60
2023-04-29T10:22:48.076Z,5.50
2023-04-29T10:25:18.427Z,5.77
2023-04-29T10:27:49.102Z,5.33
2023-04-29T10:30:20.120Z,5.27
2023-04-29T10:32:52.800Z,5.63
2023-04-29T10:35:26.106Z,5.50
2023-04-29T10:37:56.059Z,5.77
2023-04-29T10:40:29.739Z,5.07
2023-04-29T10:42:59.662Z,5.33
2023-04-29T10:45:32.025Z,5.27
2023-04-29T10:48:24.609Z,5.40
2023-04-29T10:51:03.693Z,5.40
2023-04-29T10:53:32.657Z,5.23
2023-04-29T10:56:07.249Z,6.00
2023-04-29T10:58:44.565Z,6.07
2023-04-29T11:01:14.923Z,5.97
2023-04-29T11:03:58.448Z,5.40
2023-04-29T11:06:39.769Z,5.53
2023-04-29T11:09:14.542Z,5.20
2023-04-29T11:11:44.809Z,5.93
2023-04-29T11:14:14.967Z,5.53
2023-04-29T11:16:50.639Z,5.90
2023-04-29T11:19:21.868Z,5.73
2023-04-29T11:22:04.523Z,6.10
2023-04-29T11:24:35.459Z,5.10
2023-04-29T11:27:05.551Z,6.00
2023-04-29T11:29:35.533Z,5.30
2023-04-29T11:32:04.440Z,5.83
2023-04-29T11:34:34.729Z,6.03
2023-04-29T11:37:03.280Z,5.80
2023-04-29T11:39:34.705Z,5.90
2023-04-29T11:42:07.630Z,5.17
2023-04-29T11:44:37.653Z,5.57
2023-04-29T11:47:08.354Z,6.10
2023-04-29T11:49:38.556Z,4.57
2023-04-29T11:52:07.265Z,5.47
2023-04-29T11:54:35.922Z,5.33
2023-04-29T11:57:04.864Z,5.50
2023-04-29T11:59:36.435Z,6.03
2023-04-29T12:02:05.229Z,5.33
2023-04-29T12:04:33.878Z,4.93
2023-04-29T12:07:05.528Z,5.90
2023-04-29T12:09:44.585Z,5.00
2023-04-29T12:12:13.883Z,5.70
2023-04-29T12:14:43.668Z,6.00
2023-04-29T12:17:13.106Z,6.33
2023-04-29T12:19:44.041Z,5.60
2023-04-29T12:22:14.526Z,6.00
2023-04-29T12:24:43.018Z,5.83
2023-04-29T12:27:12.791Z,6.00
2023-04-29T12:29:41.903Z,5.83
2023-04-29T12:32:18.028Z,5.60
2023-04-29T12:34:50.704Z,5.73
2023-04-29T12:37:22.690Z,5.70
2023-04-29T12:39:52.863Z,5.83
2023-04-29T12:42:21.905Z,5.40
2023-04-29T12:44:50.488Z,4.87
2023-04-29T12:47:21.646Z,4.60
2023-04-29T12:49:51.157Z,5.50
2023-04-29T12:52:21.037Z,4.60
2023-04-29T12:54:49.493Z,8.10
2023-04-29T12:57:17.980Z,5.73
2023-04-29T12:59:47.000Z,5.70
2023-04-29T13:02:15.592Z,5.70
2023-04-29T13:04:44.198Z,4.43
2023-04-29T13:07:13.213Z,5.50
2023-04-29T13:09:43.048Z,4.93
2023-04-29T13:12:11.454Z,4.73
2023-04-29T13:14:39.892Z,5.13
2023-04-29T13:17:10.884Z,4.70
2023-04-29T13:19:51.287Z,5.10
2023-04-29T13:22:21.760Z,5.10
2023-04-29T13:24:51.683Z,5.40
2023-04-29T13:27:20.256Z,4.57
2023-04-29T13:29:50.207Z,4.60
2023-04-29T13:32:21.597Z,5.00
2023-04-29T13:34:50.586Z,5.03
2023-04-29T13:37:19.939Z,5.27
2023-04-29T13:39:48.295Z,5.20
2023-04-29T13:42:18.116Z,5.30
2023-04-29T13:44:59.125Z,4.70
2023-04-29T13:47:30.354Z,5.13
2023-04-29T13:50:36.948Z,4.70
2023-04-29T13:53:18.528Z,6.00
2023-04-29T13:58:40.369Z,4.63
2023-04-29T14:03:31.473Z,4.10
2023-04-29T14:06:29.319Z,4.20
2023-04-29T14:08:59.618Z,4.70
2023-04-29T14:11:29.074Z,5.50
2023-04-29T14:13:59.072Z,4.27
2023-04-29T14:16:28.929Z,4.20
2023-04-29T14:18:57.630Z,4.17
2023-04-29T14:21:26.453Z,4.10
2023-04-29T14:23:55.056Z,3.93
2023-04-29T14:26:28.247Z,3.80
2023-04-29T14:29:00.150Z,4.43
2023-04-29T14:31:31.041Z,4.00
2023-04-29T14:34:03.742Z,4.60
2023-04-29T14:36:33.706Z,4.00
2023-04-29T14:39:03.983Z,4.13
2023-04-29T14:41:36.165Z,3.67
2023-04-29T14:44:09.423Z,4.20
2023-04-29T14:46:53.359Z,4.10
2023-04-29T14:49:22.501Z,3.77
2023-04-29T14:51:51.239Z,3.90
2023-04-29T14:54:23.059Z,4.33
2023-04-29T14:56:52.379Z,4.80
2023-04-29T14:59:22.714Z,4.00
2023-04-29T15:01:52.771Z,4.00
2023-04-29T15:04:21.781Z,3.90
2023-04-29T15:06:50.955Z,3.63
2023-04-29T15:09:19.619Z,3.70
2023-04-29T15:11:48.401Z,3.70
2023-04-29T15:14:17.121Z,4.17
2023-04-29T15:16:47.161Z,4.10
2023-04-29T15:19:15.768Z,3.97
2023-04-29T15:21:44.340Z,3.50
2023-04-29T15:24:13.805Z,3.40
2023-04-29T15:26:42.463Z,3.30
2023-04-29T15:29:12.530Z,2.97
2023-04-29T15:31:43.177Z,3.17
2023-04-29T15:34:13.756Z,2.97
2023-04-29T15:36:44.059Z,3.60
2023-04-29T15:39:13.624Z,3.57
2023-04-29T15:45:14.197Z,3.50
2023-04-29T15:47:43.474Z,3.43
2023-04-29T15:50:13.882Z,4.10
2023-04-29T15:52:44.669Z,3.40
2023-04-29T15:56:15.803Z,3.30
2023-04-29T16:02:38.058Z,3.07
2023-04-29T16:08:54.512Z,3.57
2023-04-29T16:11:29.106Z,3.23
2023-04-29T16:13:58.068Z,3.73
2023-04-29T16:16:26.852Z,3.70
2023-04-29T16:18:55.807Z,3.87
2023-04-29T16:21:27.679Z,3.30
2023-04-29T16:23:56.451Z,3.53
2023-04-29T16:26:26.198Z,3.23
2023-04-29T16:28:54.724Z,3.07
2023-04-29T16:31:23.701Z,3.70
2023-04-29T16:33:52.622Z,3.30
2023-04-29T16:36:21.845Z,3.47
2023-04-29T16:38:54.378Z,3.10
2023-04-29T16:41:24.179Z,3.10
2023-04-29T16:43:53.129Z,2.97
2023-04-29T16:46:22.578Z,3.43
2023-04-29T16:48:52.364Z,4.00
2023-04-29T16:51:20.986Z,3.60
2023-04-29T16:53:49.556Z,3.03
2023-04-29T16:56:31.733Z,3.20
2023-04-29T16:59:00.416Z,3.50
2023-04-29T17:01:29.745Z,3.40
2023-04-29T17:03:58.448Z,3.80
2023-04-29T17:06:27.116Z,3.77
2023-04-29T17:08:56.007Z,3.30
2023-04-29T17:11:25.355Z,3.50
2023-04-29T17:13:55.504Z,3.00
2023-04-29T17:16:24.090Z,3.00
2023-04-29T17:18:52.930Z,3.43
2023-04-29T17:21:24.820Z,4.13
2023-04-29T17:23:53.842Z,4.40
2023-04-29T17:26:22.869Z,3.27
2023-04-29T17:28:51.599Z,3.07
2023-04-29T17:31:25.394Z,3.00
2023-04-29T17:34:05.207Z,2.70
2023-04-29T17:36:34.065Z,3.10
2023-04-29T17:39:02.637Z,2.80
2023-04-29T17:41:31.219Z,3.00
2023-04-29T17:43:59.898Z,2.53
2023-04-29T17:46:30.767Z,2.57
2023-04-29T17:48:59.302Z,2.33
2023-04-29T17:51:30.022Z,2.73
2023-04-29T17:53:59.514Z,3.23
2023-04-29T17:56:29.737Z,3.70
2023-04-29T17:58:59.007Z,3.90
2023-04-29T18:01:27.627Z,4.13
2023-04-29T18:03:59.780Z,4.30
2023-04-29T18:06:30.473Z,3.37
2023-04-29T18:08:59.123Z,3.30
2023-04-29T18:14:48.956Z,3.30
2023-04-29T18:17:17.761Z,4.20
2023-04-29T18:20:00.916Z,5.03
2023-04-29T18:22:29.562Z,6.57
2023-04-29T18:25:00.182Z,7.50
2023-04-29T18:27:31.559Z,8.23
2023-04-29T18:30:12.797Z,8.40
2023-04-29T18:32:42.595Z,9.40
2023-04-29T18:35:12.943Z,9.23
2023-04-29T18:37:41.594Z,9.50
2023-04-29T18:40:11.516Z,11.03
2023-04-29T18:42:40.295Z,10.17
2023-04-29T18:45:10.279Z,10.70
2023-04-29T18:47:39.265Z,10.70
2023-04-29T18:50:08.862Z,10.20
2023-04-29T18:52:39.150Z,9.53
2023-04-29T18:55:08.237Z,10.20
2023-04-29T18:57:36.925Z,10.20
2023-04-29T19:00:07.504Z,10.43
2023-04-29T19:02:37.383Z,10.80
2023-04-29T19:05:09.406Z,10.97
2023-04-29T19:07:40.413Z,14.30
2023-04-29T19:10:10.016Z,14.30
2023-04-29T19:12:38.785Z,12.33
2023-04-29T19:15:08.390Z,11.50
2023-04-29T19:17:37.114Z,11.10
2023-04-29T19:20:06.873Z,10.77
2023-04-29T19:22:35.551Z,11.20
2023-04-29T19:25:06.173Z,9.93
2023-04-29T19:27:34.732Z,11.20
2023-04-29T19:30:03.146Z,11.57
2023-04-29T19:32:31.808Z,11.80
2023-04-29T19:35:00.200Z,11.43
2023-04-29T19:37:28.639Z,11.53
2023-04-29T19:39:57.102Z,11.43
2023-04-29T19:42:27.152Z,12.13
2023-04-29T19:44:56.367Z,11.40
2023-04-29T19:47:25.060Z,12.57
2023-04-29T19:49:53.974Z,13.30
2023-04-29T19:52:24.646Z,14.53
2023-04-29T19:54:53.389Z,13.33
2023-04-29T19:57:21.872Z,13.47
2023-04-29T19:59:52.149Z,13.60
2023-04-29T20:02:20.888Z,14.53
2023-04-29T20:04:49.544Z,13.13
2023-04-29T20:07:18.276Z,13.60
2023-04-29T20:09:48.308Z,15.07
2023-04-29T20:12:16.910Z,15.90
2023-04-29T20:14:45.736Z,14.70
2023-04-29T20:17:16.549Z,13.93
2023-04-29T20:19:45.311Z,14.20
2023-04-29T20:22:14.031Z,15.03
2023-04-29T20:24:42.843Z,15.03
2023-04-29T20:27:11.368Z,14.97
2023-04-29T20:29:39.907Z,14.57
2023-04-29T20:32:08.818Z,15.23
2023-04-29T20:34:38.907Z,15.70
2023-04-29T20:37:08.041Z,16.47
2023-04-29T20:39:36.800Z,15.50
2023-04-29T20:42:05.403Z,15.80
2023-04-29T20:44:34.878Z,15.87
2023-04-29T20:47:03.726Z,15.23
2023-04-29T20:49:32.214Z,17.10
2023-04-29T20:52:02.378Z,17.13
2023-04-29T20:54:30.777Z,17.43
2023-04-29T20:56:59.562Z,17.90
2023-04-29T20:59:28.058Z,17.00
2023-04-29T21:01:56.584Z,18.60
2023-04-29T21:04:25.353Z,17.90
2023-04-29T21:06:53.934Z,18.47
2023-04-29T21:09:23.866Z,18.47
2023-04-29T21:11:52.423Z,18.93
2023-04-29T21:14:20.932Z,18.80
2023-04-29T21:16:49.328Z,18.07
2023-04-29T21:19:17.878Z,18.50
2023-04-29T21:21:46.224Z,18.13
2023-04-29T21:24:14.686Z,16.30
2023-04-29T21:26:45.397Z,17.30
2023-04-29T21:29:14.118Z,17.47
2023-04-29T21:31:42.717Z,17.97
2023-04-29T21:34:11.275Z,18.40
2023-04-29T21:36:39.690Z,18.93
2023-04-29T21:39:08.372Z,17.90
2023-04-29T21:41:40.488Z,18.73
2023-04-29T21:44:10.419Z,19.27
2023-04-29T21:46:39.020Z,17.90
2023-04-29T21:49:07.531Z,17.47
2023-04-29T21:51:36.383Z,18.33
2023-04-29T21:54:08.455Z,16.47
2023-04-29T21:56:37.430Z,16.67
2023-04-29T21:59:05.852Z,17.60
2023-04-29T22:01:48.565Z,17.27
2023-04-29T22:04:17.643Z,18.70
2023-04-29T22:06:46.319Z,17.50
2023-04-29T22:09:16.178Z,18.40
2023-04-29T22:11:45.002Z,17.40
2023-04-29T22:14:13.383Z,18.23
2023-04-29T22:16:43.275Z,18.33
2023-04-29T22:19:11.969Z,18.67
2023-04-29T22:21:42.905Z,17.33
2023-04-29T22:24:11.651Z,18.53
2023-04-29T22:26:40.024Z,17.73
2023-04-29T22:29:08.422Z,17.03
2023-04-29T22:31:36.815Z,19.27
2023-04-29T22:34:06.828Z,18.63
2023-04-29T22:36:36.526Z,18.83
2023-04-29T22:39:05.036Z,19.13
2023-04-29T22:41:33.336Z,19.33
2023-04-29T22:44:01.694Z,18.63
2023-04-29T22:46:30.080Z,17.97
2023-04-29T22:48:58.753Z,18.60
2023-04-29T22:51:32.123Z,16.73
2023-04-29T22:54:00.516Z,17.77
2023-04-29T22:56:31.011Z,18.70
2023-04-29T22:58:59.432Z,17.27
2023-04-29T23:01:28.248Z,17.57
2023-04-29T23:03:57.060Z,19.53
2023-04-29T23:06:26.318Z,18.07
2023-04-29T23:08:56.268Z,19.60
2023-04-29T23:11:24.747Z,17.20
2023-04-29T23:13:54.745Z,18.97
2023-04-29T23:16:23.288Z,17.57
2023-04-29T23:18:51.646Z,17.23
2023-04-29T23:21:20.090Z,16.90
2023-04-29T23:23:48.531Z,16.83
2023-04-29T23:26:18.276Z,17.67
2023-04-29T23:28:46.773Z,18.97
2023-04-29T23:31:15.173Z,17.83
2023-04-29T23:33:43.661Z,16.43
2023-04-29T23:36:12.124Z,18.53
2023-04-29T23:38:40.555Z,17.40
2023-04-29T23:41:09.036Z,17.40
2023-04-29T23:43:39.696Z,17.37
2023-04-29T23:46:08.201Z,16.67
2023-04-29T23:48:36.643Z,17.07
2023-04-29T23:51:05.245Z,18.37
2023-04-29T23:53:33.750Z,17.77
2023-04-29T23:56:02.192Z,17.77
2023-04-29T23:58:30.627Z,18.07
